Time;durP1;ratioP1;P1;durP2;ratioP2;P2;SDS_P1;SDS_P2;PMS_P1;PMS_P2;Temp;Humidity;BMP_temperature;BMP_pressure;BME280_temperature;BME280_humidity;BME280_pressure;Samples;Min_cycle;Max_cycle;Signal;HPM_P1;HPM_P2
2022/02/17 00:01:38;;;;;;;;;;;21.60;33.00;;;;;;483992;246;1439;-39
2022/02/17 00:03:39;;;;;;;;;;;21.60;33.00;;;;;;484448;246;1189;-40
2022/02/17 00:05:41;;;;;;;;;;;21.60;32.90;;;;;;484440;246;1069;-40
2022/02/17 00:07:42;;;;;;;;;;;21.60;33.00;;;;;;484420;246;1206;-40
2022/02/17 00:09:43;;;;;;;;;;;21.60;33.00;;;;;;484076;246;1032;-40
2022/02/17 00:11:45;;;;;;;;;;;21.60;33.00;;;;;;483942;246;1539;-40
2022/02/17 00:13:46;;;;;;;;;;;21.60;33.00;;;;;;484064;246;1050;-40
2022/02/17 00:15:47;;;;;;;;;;;21.60;33.00;;;;;;483943;246;2204;-40
2022/02/17 00:17:49;;;;;;;;;;;21.60;33.00;;;;;;483868;246;1136;-40
2022/02/17 00:19:50;;;;;;;;;;;21.60;33.00;;;;;;484046;246;1043;-40
2022/02/17 00:21:51;;;;;;;;;;;21.60;33.00;;;;;;483952;246;1577;-40
2022/02/17 00:23:53;;;;;;;;;;;21.60;33.00;;;;;;484471;246;1045;-40
2022/02/17 00:25:54;;;;;;;;;;;21.60;33.00;;;;;;484061;246;1185;-40
2022/02/17 00:27:56;;;;;;;;;;;21.60;33.00;;;;;;484082;246;1225;-40
2022/02/17 00:29:57;;;;;;;;;;;21.60;33.00;;;;;;484356;246;1315;-40
2022/02/17 00:31:58;;;;;;;;;;;21.60;33.00;;;;;;484449;246;1213;-40
2022/02/17 00:34:00;;;;;;;;;;;21.60;33.00;;;;;;484082;246;1060;-40
2022/02/17 00:36:01;;;;;;;;;;;21.60;33.00;;;;;;484482;246;2179;-40
2022/02/17 00:38:02;;;;;;;;;;;21.60;33.00;;;;;;484512;246;1041;-40
2022/02/17 00:40:04;;;;;;;;;;;21.60;33.00;;;;;;484431;246;977;-40
2022/02/17 00:42:05;;;;;;;;;;;21.60;33.00;;;;;;483974;246;1277;-40
2022/02/17 00:44:06;;;;;;;;;;;21.60;33.00;;;;;;484231;246;1056;-40
2022/02/17 00:46:07;;;;;;;;;;;21.60;33.00;;;;;;483940;246;1285;-40
2022/02/17 00:48:09;;;;;;;;;;;21.60;32.90;;;;;;483945;246;1104;-40
2022/02/17 00:50:10;;;;;;;;;;;21.60;33.00;;;;;;484114;246;1107;-40
2022/02/17 00:52:11;;;;;;;;;;;21.60;33.00;;;;;;483947;246;1180;-40
2022/02/17 00:54:13;;;;;;;;;;;21.60;33.00;;;;;;484440;246;982;-40
2022/02/17 00:56:14;;;;;;;;;;;21.60;33.00;;;;;;484357;243;2171;-40
2022/02/17 00:58:15;;;;;;;;;;;21.70;33.10;;;;;;484450;246;1073;-40
2022/02/17 01:00:17;;;;;;;;;;;21.60;33.00;;;;;;484372;246;1302;-40
2022/02/17 01:02:18;;;;;;;;;;;21.60;33.00;;;;;;484171;246;1056;-40
2022/02/17 01:04:19;;;;;;;;;;;21.60;33.00;;;;;;484119;246;1363;-40
2022/02/17 01:06:21;;;;;;;;;;;21.70;33.00;;;;;;483992;246;1353;-40
2022/02/17 01:08:22;;;;;;;;;;;21.60;33.00;;;;;;484318;246;1191;-40
2022/02/17 01:10:23;;;;;;;;;;;21.70;33.00;;;;;;484433;246;1261;-40
2022/02/17 01:12:25;;;;;;;;;;;21.70;33.00;;;;;;483969;246;1081;-40
2022/02/17 01:14:26;;;;;;;;;;;21.60;33.00;;;;;;484049;246;1068;-40
2022/02/17 01:16:27;;;;;;;;;;;21.60;33.00;;;;;;483913;246;2208;-40
2022/02/17 01:18:29;;;;;;;;;;;21.60;33.00;;;;;;484449;246;1017;-40
2022/02/17 01:20:30;;;;;;;;;;;21.60;33.00;;;;;;484487;246;1145;-40
2022/02/17 01:22:31;;;;;;;;;;;21.60;33.00;;;;;;484485;246;1051;-40
2022/02/17 01:24:32;;;;;;;;;;;21.60;33.10;;;;;;484521;246;1308;-40
2022/02/17 01:26:34;;;;;;;;;;;21.60;33.20;;;;;;484143;246;1572;-40
2022/02/17 01:28:36;;;;;;;;;;;21.60;33.20;;;;;;484048;246;1093;-40
2022/02/17 01:30:36;;;;;;;;;;;21.60;33.10;;;;;;484380;246;1433;-39
2022/02/17 01:32:38;;;;;;;;;;;21.70;33.10;;;;;;484008;246;1168;-40
2022/02/17 01:34:39;;;;;;;;;;;21.60;33.10;;;;;;484463;246;1221;-40
2022/02/17 01:36:40;;;;;;;;;;;21.70;33.10;;;;;;484197;246;2108;-40
2022/02/17 01:38:44;;;;;;;;;;;21.60;33.10;;;;;;484119;246;1086;-40
2022/02/17 01:40:43;;;;;;;;;;;21.60;33.20;;;;;;483932;243;1483;-40
2022/02/17 01:42:46;;;;;;;;;;;21.60;33.10;;;;;;484033;246;1148;-40
2022/02/17 01:44:46;;;;;;;;;;;21.70;33.20;;;;;;484436;246;2254;-39
2022/02/17 01:46:47;;;;;;;;;;;21.70;33.10;;;;;;484012;246;1477;-40
2022/02/17 01:48:49;;;;;;;;;;;21.70;33.10;;;;;;484007;246;1048;-40
2022/02/17 01:50:50;;;;;;;;;;;21.60;33.10;;;;;;484490;246;1131;-40
2022/02/17 01:52:51;;;;;;;;;;;21.60;33.20;;;;;;484071;246;1198;-40
2022/02/17 01:54:53;;;;;;;;;;;21.70;33.20;;;;;;484484;246;1093;-40
2022/02/17 01:56:54;;;;;;;;;;;21.60;33.20;;;;;;484382;246;2125;-40
2022/02/17 01:58:55;;;;;;;;;;;21.60;33.20;;;;;;484187;246;1101;-40
2022/02/17 02:00:57;;;;;;;;;;;21.60;33.20;;;;;;483949;246;1300;-40
2022/02/17 02:02:58;;;;;;;;;;;21.60;33.10;;;;;;484351;246;1363;-40
2022/02/17 02:04:59;;;;;;;;;;;21.60;33.20;;;;;;484151;246;1081;-40
2022/02/17 02:07:01;;;;;;;;;;;21.60;33.20;;;;;;484348;246;1189;-40
2022/02/17 02:09:02;;;;;;;;;;;21.60;33.20;;;;;;484469;246;1227;-40
2022/02/17 02:11:04;;;;;;;;;;;21.60;33.20;;;;;;484286;246;1016;-40
2022/02/17 02:13:05;;;;;;;;;;;21.60;33.20;;;;;;484431;246;1069;-40
2022/02/17 02:15:06;;;;;;;;;;;21.60;33.20;;;;;;484019;246;1050;-40
2022/02/17 02:17:11;;;;;;;;;;;21.70;33.20;;;;;;483956;246;2120;-40
2022/02/17 02:19:09;;;;;;;;;;;21.70;33.20;;;;;;484212;246;1838;-40
2022/02/17 02:21:10;;;;;;;;;;;21.70;33.20;;;;;;484401;246;1072;-40
2022/02/17 02:23:12;;;;;;;;;;;21.60;33.20;;;;;;484148;246;1070;-40
2022/02/17 02:25:13;;;;;;;;;;;21.60;33.30;;;;;;484060;246;1139;-40
2022/02/17 02:27:14;;;;;;;;;;;21.60;33.20;;;;;;484437;246;1203;-40
2022/02/17 02:29:16;;;;;;;;;;;21.70;33.20;;;;;;484063;246;1319;-40
2022/02/17 02:31:18;;;;;;;;;;;21.70;33.20;;;;;;484416;246;1218;-40
2022/02/17 02:33:18;;;;;;;;;;;21.70;33.30;;;;;;484079;245;1576;-40
2022/02/17 02:35:21;;;;;;;;;;;21.70;33.20;;;;;;484270;246;1031;-40
2022/02/17 02:37:22;;;;;;;;;;;21.70;33.20;;;;;;484435;246;2113;-40
2022/02/17 02:39:23;;;;;;;;;;;21.60;33.20;;;;;;484539;246;1050;-40
2022/02/17 02:41:24;;;;;;;;;;;21.60;33.30;;;;;;483965;246;1311;-40
2022/02/17 02:43:26;;;;;;;;;;;21.60;33.30;;;;;;484493;246;1087;-40
2022/02/17 02:45:27;;;;;;;;;;;21.60;33.30;;;;;;484046;246;1195;-40
2022/02/17 02:47:28;;;;;;;;;;;21.60;33.20;;;;;;484151;246;1433;-40
2022/02/17 02:49:30;;;;;;;;;;;21.60;33.20;;;;;;484479;246;1012;-40
2022/02/17 02:51:31;;;;;;;;;;;21.70;33.30;;;;;;483945;246;1350;-40
2022/02/17 02:53:32;;;;;;;;;;;21.60;33.20;;;;;;483997;246;1033;-40
2022/02/17 02:55:34;;;;;;;;;;;21.70;33.30;;;;;;484219;246;2141;-40
2022/02/17 02:57:35;;;;;;;;;;;21.60;33.20;;;;;;484396;246;1221;-40
2022/02/17 02:59:41;;;;;;;;;;;21.60;33.30;;;;;;484039;246;1061;-40
2022/02/17 03:01:38;;;;;;;;;;;21.60;33.20;;;;;;483703;246;1922;-40
2022/02/17 03:03:39;;;;;;;;;;;21.70;33.30;;;;;;484462;246;1242;-40
2022/02/17 03:05:41;;;;;;;;;;;21.60;33.30;;;;;;484105;246;1348;-40
2022/02/17 03:07:42;;;;;;;;;;;21.60;33.30;;;;;;484372;246;1262;-40
2022/02/17 03:09:43;;;;;;;;;;;21.70;33.30;;;;;;484316;246;1183;-40
2022/02/17 03:11:44;;;;;;;;;;;21.60;33.20;;;;;;484346;246;1130;-40
2022/02/17 03:13:46;;;;;;;;;;;21.60;33.20;;;;;;483964;246;1230;-40
2022/02/17 03:15:47;;;;;;;;;;;21.60;33.30;;;;;;484458;246;2116;-40
2022/02/17 03:17:48;;;;;;;;;;;21.60;33.30;;;;;;483936;246;1468;-40
2022/02/17 03:19:50;;;;;;;;;;;21.60;33.30;;;;;;484406;246;1208;-40
2022/02/17 03:21:51;;;;;;;;;;;21.70;33.30;;;;;;484268;246;1148;-40
2022/02/17 03:23:53;;;;;;;;;;;21.70;33.30;;;;;;484293;246;1116;-40
2022/02/17 03:25:55;;;;;;;;;;;21.60;33.30;;;;;;484460;246;1043;-40
2022/02/17 03:27:55;;;;;;;;;;;21.60;33.40;;;;;;484440;246;2175;-40
2022/02/17 03:29:56;;;;;;;;;;;21.60;33.30;;;;;;484514;246;1162;-39
2022/02/17 03:31:58;;;;;;;;;;;21.60;33.40;;;;;;484219;246;1302;-40
2022/02/17 03:33:59;;;;;;;;;;;21.60;33.40;;;;;;484178;246;1055;-40
2022/02/17 03:36:00;;;;;;;;;;;21.60;33.40;;;;;;484005;246;2134;-40
2022/02/17 03:38:02;;;;;;;;;;;21.60;33.40;;;;;;483998;246;1312;-40
2022/02/17 03:40:03;;;;;;;;;;;21.50;33.40;;;;;;484052;246;983;-40
2022/02/17 03:42:04;;;;;;;;;;;21.60;33.40;;;;;;484071;246;1146;-40
2022/02/17 03:44:06;;;;;;;;;;;21.60;33.40;;;;;;484493;246;1056;-40
2022/02/17 03:46:07;;;;;;;;;;;21.60;33.40;;;;;;484174;246;1052;-40
2022/02/17 03:48:08;;;;;;;;;;;21.60;33.40;;;;;;484244;246;1254;-40
2022/02/17 03:50:10;;;;;;;;;;;21.60;33.40;;;;;;484465;246;1060;-40
2022/02/17 03:52:11;;;;;;;;;;;21.60;33.30;;;;;;484174;246;1241;-40
2022/02/17 03:54:12;;;;;;;;;;;21.60;33.40;;;;;;484046;246;1075;-40
2022/02/17 03:56:14;;;;;;;;;;;21.60;33.40;;;;;;484051;246;2192;-40
2022/02/17 03:59:00;;;;;;;;;;;21.60;33.40;;;;;;484466;246;1155;-40
2022/02/17 04:00:17;;;;;;;;;;;21.60;33.40;;;;;;482849;246;1939;-40
2022/02/17 04:02:18;;;;;;;;;;;21.60;33.40;;;;;;483966;246;1310;-40
2022/02/17 04:04:20;;;;;;;;;;;21.60;33.40;;;;;;484374;246;1079;-40
2022/02/17 04:06:21;;;;;;;;;;;21.60;33.40;;;;;;484265;246;1194;-40
2022/02/17 04:08:22;;;;;;;;;;;21.60;33.40;;;;;;484115;246;1168;-40
2022/02/17 04:10:24;;;;;;;;;;;21.60;33.40;;;;;;485019;246;1354;-40
2022/02/17 04:12:25;;;;;;;;;;;21.60;33.40;;;;;;484792;246;1153;-40
2022/02/17 04:14:26;;;;;;;;;;;21.70;33.40;;;;;;484996;246;1045;-40
2022/02/17 04:16:29;;;;;;;;;;;21.60;33.40;;;;;;484661;246;2121;-40
2022/02/17 04:18:29;;;;;;;;;;;21.60;33.40;;;;;;484086;245;2333;-40
2022/02/17 04:20:30;;;;;;;;;;;21.60;33.40;;;;;;484486;246;1682;-40
2022/02/17 04:22:31;;;;;;;;;;;21.60;33.40;;;;;;484149;246;1254;-40
2022/02/17 04:24:33;;;;;;;;;;;21.60;33.40;;;;;;484082;246;1079;-40
2022/02/17 04:26:34;;;;;;;;;;;21.60;33.40;;;;;;484060;246;1411;-40
2022/02/17 04:28:35;;;;;;;;;;;21.60;33.40;;;;;;484064;246;1298;-40
2022/02/17 04:30:37;;;;;;;;;;;21.60;33.40;;;;;;484392;246;1447;-40
2022/02/17 04:32:38;;;;;;;;;;;21.60;33.40;;;;;;483954;246;1208;-40
2022/02/17 04:34:39;;;;;;;;;;;21.60;33.40;;;;;;484078;246;1214;-40
2022/02/17 04:36:41;;;;;;;;;;;21.60;33.40;;;;;;484420;246;2184;-40
2022/02/17 04:38:42;;;;;;;;;;;21.60;33.40;;;;;;484504;246;1251;-40
2022/02/17 04:43:02;;;;;;;;;;;21.70;33.40;;;;;;483102;246;1109;-40
2022/02/17 04:45:04;;;;;;;;;;;21.60;33.50;;;;;;484110;246;1068;-40
2022/02/17 04:47:05;;;;;;;;;;;21.60;33.50;;;;;;484352;246;1088;-40
2022/02/17 04:49:07;;;;;;;;;;;21.60;33.50;;;;;;484146;246;1110;-40
2022/02/17 04:51:08;;;;;;;;;;;21.60;33.40;;;;;;484371;243;1138;-40
2022/02/17 04:53:09;;;;;;;;;;;21.60;33.40;;;;;;484382;246;1121;-40
2022/02/17 04:55:10;;;;;;;;;;;21.60;33.40;;;;;;484014;246;1123;-40
2022/02/17 04:57:12;;;;;;;;;;;21.60;33.40;;;;;;484378;246;2124;-40
2022/02/17 04:59:13;;;;;;;;;;;21.70;33.40;;;;;;484052;246;1095;-40
2022/02/17 05:01:14;;;;;;;;;;;21.60;33.40;;;;;;484329;246;1395;-40
2022/02/17 05:03:16;;;;;;;;;;;21.60;33.40;;;;;;484322;246;1277;-40
2022/02/17 05:05:17;;;;;;;;;;;21.60;33.50;;;;;;484435;246;1469;-40
2022/02/17 05:07:19;;;;;;;;;;;21.60;33.50;;;;;;484043;246;1629;-40
2022/02/17 05:09:20;;;;;;;;;;;21.60;33.50;;;;;;483924;246;1205;-40
2022/02/17 05:11:21;;;;;;;;;;;21.60;33.50;;;;;;484091;246;1356;-40
2022/02/17 05:13:23;;;;;;;;;;;21.60;33.60;;;;;;484450;246;1173;-40
2022/02/17 05:15:24;;;;;;;;;;;21.60;33.60;;;;;;484323;246;1205;-40
2022/02/17 05:17:25;;;;;;;;;;;21.50;33.60;;;;;;484085;246;2144;-39
2022/02/17 05:19:27;;;;;;;;;;;21.60;33.60;;;;;;484142;246;1190;-40
2022/02/17 05:21:28;;;;;;;;;;;21.50;33.50;;;;;;483818;246;1440;-40
2022/02/17 05:23:29;;;;;;;;;;;21.60;33.60;;;;;;484242;246;1195;-40
2022/02/17 05:25:31;;;;;;;;;;;21.60;33.60;;;;;;484221;246;1559;-40
2022/02/17 05:27:32;;;;;;;;;;;21.60;33.50;;;;;;483814;246;1284;-39
2022/02/17 05:29:33;;;;;;;;;;;21.60;33.60;;;;;;484188;246;1063;-40
2022/02/17 05:31:34;;;;;;;;;;;21.60;33.50;;;;;;484247;246;1428;-40
2022/02/17 05:33:36;;;;;;;;;;;21.60;33.60;;;;;;483921;246;1205;-40
2022/02/17 05:35:37;;;;;;;;;;;21.60;33.50;;;;;;484379;246;1673;-40
2022/02/17 05:37:39;;;;;;;;;;;21.60;33.50;;;;;;483897;246;2192;-40
2022/02/17 05:39:40;;;;;;;;;;;21.70;33.50;;;;;;483829;246;1144;-40
2022/02/17 05:41:42;;;;;;;;;;;21.60;33.50;;;;;;483801;246;1277;-40
2022/02/17 05:43:43;;;;;;;;;;;21.60;33.50;;;;;;484242;246;1077;-40
2022/02/17 05:45:44;;;;;;;;;;;21.60;33.50;;;;;;484256;246;1360;-40
2022/02/17 05:47:46;;;;;;;;;;;21.50;33.60;;;;;;483684;246;1207;-40
2022/02/17 05:49:47;;;;;;;;;;;21.60;33.60;;;;;;483955;246;1192;-40
2022/02/17 05:51:48;;;;;;;;;;;21.60;33.50;;;;;;483822;246;1340;-40
2022/02/17 05:53:49;;;;;;;;;;;21.60;33.60;;;;;;483811;246;1160;-40
2022/02/17 05:55:51;;;;;;;;;;;21.60;33.50;;;;;;483845;246;1412;-40
2022/02/17 05:57:52;;;;;;;;;;;21.60;33.50;;;;;;483789;246;2121;-40
2022/02/17 05:59:53;;;;;;;;;;;21.60;33.50;;;;;;484267;246;1212;-40
2022/02/17 06:01:55;;;;;;;;;;;21.70;33.50;;;;;;483766;246;1055;-40
2022/02/17 06:03:56;;;;;;;;;;;21.70;33.50;;;;;;483714;246;1295;-40
2022/02/17 06:05:57;;;;;;;;;;;21.60;33.50;;;;;;483742;246;1410;-40
2022/02/17 06:07:59;;;;;;;;;;;21.60;33.50;;;;;;483977;246;1282;-40
2022/02/17 06:10:00;;;;;;;;;;;21.70;33.60;;;;;;483974;246;1248;-40
2022/02/17 06:12:02;;;;;;;;;;;21.60;33.50;;;;;;483961;246;1172;-40
2022/02/17 06:14:03;;;;;;;;;;;21.60;33.50;;;;;;484109;246;1050;-40
2022/02/17 06:16:04;;;;;;;;;;;21.60;33.60;;;;;;483811;246;1043;-40
2022/02/17 06:18:06;;;;;;;;;;;21.60;33.50;;;;;;483860;246;2124;-40
2022/02/17 06:20:07;;;;;;;;;;;21.60;33.50;;;;;;483990;246;1237;-40
2022/02/17 06:22:08;;;;;;;;;;;21.60;33.60;;;;;;483828;246;1221;-40
2022/02/17 06:24:10;;;;;;;;;;;21.60;33.60;;;;;;483850;246;1146;-40
2022/02/17 06:26:11;;;;;;;;;;;21.60;33.60;;;;;;483721;246;1065;-40
2022/02/17 06:28:13;;;;;;;;;;;21.50;33.60;;;;;;484098;246;1059;-40
2022/02/17 06:30:14;;;;;;;;;;;21.60;33.60;;;;;;483655;246;1438;-40
2022/02/17 06:32:15;;;;;;;;;;;21.60;33.60;;;;;;483784;246;1078;-40
2022/02/17 06:34:16;;;;;;;;;;;21.60;33.60;;;;;;483754;246;1130;-40
2022/02/17 06:36:18;;;;;;;;;;;21.60;33.60;;;;;;483948;246;1061;-40
2022/02/17 06:38:19;;;;;;;;;;;21.60;33.60;;;;;;483613;246;2187;-40
2022/02/17 06:40:20;;;;;;;;;;;21.60;33.50;;;;;;483651;246;1166;-40
2022/02/17 06:42:22;;;;;;;;;;;21.60;33.60;;;;;;483646;246;1054;-40
2022/02/17 06:44:23;;;;;;;;;;;21.60;33.60;;;;;;483909;246;1081;-40
2022/02/17 06:46:24;;;;;;;;;;;21.60;33.60;;;;;;483700;246;1125;-40
2022/02/17 06:48:26;;;;;;;;;;;21.60;33.60;;;;;;483696;246;1136;-39
2022/02/17 06:50:27;;;;;;;;;;;21.60;33.70;;;;;;483650;246;1238;-39
2022/02/17 06:52:29;;;;;;;;;;;21.60;33.60;;;;;;483572;246;1092;-39
2022/02/17 06:54:30;;;;;;;;;;;21.60;33.60;;;;;;483639;246;1099;-39
2022/02/17 06:56:31;;;;;;;;;;;21.60;33.70;;;;;;483860;246;1064;-39
2022/02/17 06:58:32;;;;;;;;;;;21.60;33.60;;;;;;483839;246;2109;-39
2022/02/17 07:00:34;;;;;;;;;;;21.60;33.60;;;;;;484025;246;1385;-39
2022/02/17 07:02:35;;;;;;;;;;;21.60;33.70;;;;;;483843;246;1076;-39
2022/02/17 07:04:36;;;;;;;;;;;21.60;33.60;;;;;;483562;246;1238;-39
2022/02/17 07:06:38;;;;;;;;;;;21.70;33.60;;;;;;483549;246;1125;-39
2022/02/17 07:08:39;;;;;;;;;;;21.60;33.60;;;;;;483870;246;1037;-39
2022/02/17 07:10:56;;;;;;;;;;;21.70;33.60;;;;;;483660;246;1130;-39
2022/02/17 07:12:57;;;;;;;;;;;21.70;33.60;;;;;;483669;246;1088;-39
2022/02/17 07:14:58;;;;;;;;;;;21.60;33.70;;;;;;483635;246;1075;-39
2022/02/17 07:17:00;;;;;;;;;;;21.60;33.70;;;;;;483838;246;1192;-39
2022/02/17 07:19:01;;;;;;;;;;;21.60;33.70;;;;;;484014;246;2191;-39
2022/02/17 07:21:05;;;;;;;;;;;21.60;33.70;;;;;;483466;246;1282;-39
2022/02/17 07:23:04;;;;;;;;;;;21.60;33.70;;;;;;483305;246;2038;-40
2022/02/17 07:25:05;;;;;;;;;;;21.60;33.70;;;;;;483554;246;1132;-39
2022/02/17 07:27:06;;;;;;;;;;;21.60;33.70;;;;;;483755;246;1207;-39
2022/02/17 07:29:08;;;;;;;;;;;21.60;33.80;;;;;;483524;246;1245;-39
2022/02/17 07:31:10;;;;;;;;;;;21.60;33.80;;;;;;483481;246;1256;-39
2022/02/17 07:33:11;;;;;;;;;;;21.60;33.70;;;;;;483482;246;2043;-39
2022/02/17 07:35:13;;;;;;;;;;;21.60;33.80;;;;;;483738;246;1206;-39
2022/02/17 07:37:16;;;;;;;;;;;21.60;33.70;;;;;;483800;246;2113;-39
2022/02/17 07:39:15;;;;;;;;;;;21.60;33.80;;;;;;483385;245;2074;-39
2022/02/17 07:41:17;;;;;;;;;;;21.60;33.80;;;;;;483452;246;1152;-39
2022/02/17 07:43:18;;;;;;;;;;;21.60;33.80;;;;;;483517;246;1097;-39
2022/02/17 07:45:19;;;;;;;;;;;21.60;33.80;;;;;;483591;246;1040;-39
2022/02/17 07:47:21;;;;;;;;;;;21.60;33.80;;;;;;483461;246;1179;-39
2022/02/17 07:49:22;;;;;;;;;;;21.60;33.80;;;;;;483567;246;1210;-39
2022/02/17 07:51:23;;;;;;;;;;;21.60;33.80;;;;;;483389;246;1371;-39
2022/02/17 07:53:25;;;;;;;;;;;21.60;33.90;;;;;;483092;246;1064;-39
2022/02/17 07:55:27;;;;;;;;;;;21.60;34.00;;;;;;483437;246;1155;-39
2022/02/17 07:57:27;;;;;;;;;;;21.60;33.90;;;;;;483184;246;2195;-39
2022/02/17 07:59:29;;;;;;;;;;;21.60;34.00;;;;;;483276;246;1066;-39
2022/02/17 08:01:30;;;;;;;;;;;21.60;33.90;;;;;;483205;246;1168;-39
2022/02/17 08:03:33;;;;;;;;;;;21.60;33.90;;;;;;483403;246;1079;-39
2022/02/17 08:05:34;;;;;;;;;;;21.60;33.90;;;;;;483283;246;2035;-39
2022/02/17 08:07:38;;;;;;;;;;;21.60;33.90;;;;;;483111;246;1084;-39
2022/02/17 08:09:37;;;;;;;;;;;21.60;33.90;;;;;;482909;246;2440;-39
2022/02/17 08:11:38;;;;;;;;;;;21.70;34.00;;;;;;483104;246;1189;-39
2022/02/17 08:13:40;;;;;;;;;;;21.60;34.00;;;;;;483209;246;1280;-39
2022/02/17 08:15:41;;;;;;;;;;;21.60;34.00;;;;;;483221;246;1307;-39
2022/02/17 08:17:42;;;;;;;;;;;21.60;34.00;;;;;;483040;246;2211;-39
2022/02/17 08:19:44;;;;;;;;;;;21.60;34.10;;;;;;483072;246;1237;-39
2022/02/17 08:21:45;;;;;;;;;;;21.60;34.10;;;;;;483229;246;1235;-39
2022/02/17 08:23:47;;;;;;;;;;;21.70;34.10;;;;;;483292;246;1152;-39
2022/02/17 08:25:47;;;;;;;;;;;21.70;34.10;;;;;;483101;246;1881;-39
2022/02/17 08:27:49;;;;;;;;;;;21.60;34.10;;;;;;483108;246;1166;-39
2022/02/17 08:29:50;;;;;;;;;;;21.60;34.10;;;;;;483260;246;1249;-40
2022/02/17 08:31:51;;;;;;;;;;;21.60;34.20;;;;;;483132;246;1166;-39
2022/02/17 08:33:53;;;;;;;;;;;21.60;34.20;;;;;;483331;246;1197;-39
2022/02/17 08:35:54;;;;;;;;;;;21.60;34.20;;;;;;483435;246;1345;-39
2022/02/17 08:37:56;;;;;;;;;;;21.60;34.20;;;;;;483437;246;2188;-39
2022/02/17 08:39:57;;;;;;;;;;;21.60;34.20;;;;;;483385;246;2416;-39
2022/02/17 08:41:59;;;;;;;;;;;21.60;34.20;;;;;;483227;246;1193;-39
2022/02/17 08:44:00;;;;;;;;;;;21.60;34.30;;;;;;483273;246;1093;-39
2022/02/17 08:46:01;;;;;;;;;;;21.60;34.20;;;;;;483263;246;1191;-39
2022/02/17 08:48:03;;;;;;;;;;;21.70;34.20;;;;;;483629;246;1248;-39
2022/02/17 08:50:04;;;;;;;;;;;21.70;34.20;;;;;;483284;246;1373;-39
2022/02/17 08:52:05;;;;;;;;;;;21.70;34.20;;;;;;483396;246;1251;-39
2022/02/17 08:54:07;;;;;;;;;;;21.60;34.20;;;;;;483014;246;1314;-39
2022/02/17 08:56:08;;;;;;;;;;;21.60;34.30;;;;;;482564;246;1273;-39
2022/02/17 08:58:10;;;;;;;;;;;21.60;34.30;;;;;;483370;246;2192;-39
2022/02/17 09:00:11;;;;;;;;;;;21.70;34.30;;;;;;483113;246;1482;-39
2022/02/17 09:02:12;;;;;;;;;;;21.70;34.30;;;;;;483335;246;1328;-39
2022/02/17 09:04:14;;;;;;;;;;;21.60;34.30;;;;;;483384;246;1245;-39
2022/02/17 09:06:15;;;;;;;;;;;21.60;34.30;;;;;;483483;246;1342;-39
2022/02/17 09:08:16;;;;;;;;;;;21.60;34.40;;;;;;483114;246;1302;-39
2022/02/17 09:10:18;;;;;;;;;;;21.60;34.50;;;;;;483162;246;1083;-39
2022/02/17 09:12:19;;;;;;;;;;;21.60;34.40;;;;;;483453;246;1080;-39
2022/02/17 09:14:20;;;;;;;;;;;21.60;34.50;;;;;;483400;246;1040;-39
2022/02/17 09:16:22;;;;;;;;;;;21.60;34.40;;;;;;483164;243;1410;-39
2022/02/17 09:18:23;;;;;;;;;;;21.60;34.40;;;;;;483288;246;2208;-39
2022/02/17 09:20:25;;;;;;;;;;;21.60;34.40;;;;;;483211;246;1136;-39
2022/02/17 09:22:26;;;;;;;;;;;21.70;34.50;;;;;;483126;246;1107;-39
2022/02/17 09:24:27;;;;;;;;;;;21.60;34.50;;;;;;483102;246;1096;-39
2022/02/17 09:26:29;;;;;;;;;;;21.60;34.60;;;;;;482989;246;1193;-39
2022/02/17 09:28:30;;;;;;;;;;;21.60;34.60;;;;;;483231;246;1088;-39
2022/02/17 09:30:32;;;;;;;;;;;21.60;34.60;;;;;;483071;246;1130;-39
2022/02/17 09:32:33;;;;;;;;;;;21.60;34.60;;;;;;482978;246;1385;-39
2022/02/17 09:34:34;;;;;;;;;;;21.60;34.60;;;;;;483051;246;1166;-39
2022/02/17 09:36:36;;;;;;;;;;;21.60;34.60;;;;;;483167;246;1240;-40
2022/02/17 09:38:37;;;;;;;;;;;21.60;34.60;;;;;;483554;246;2117;-39
2022/02/17 09:40:38;;;;;;;;;;;21.70;34.60;;;;;;483768;246;1362;-39
2022/02/17 09:42:40;;;;;;;;;;;21.70;34.60;;;;;;483775;246;1240;-39
2022/02/17 09:44:41;;;;;;;;;;;21.70;34.60;;;;;;483127;246;1095;-39
2022/02/17 09:46:46;;;;;;;;;;;21.70;34.70;;;;;;483304;246;1352;-39
2022/02/17 09:48:46;;;;;;;;;;;21.60;34.70;;;;;;483169;246;2201;-39
2022/02/17 09:50:48;;;;;;;;;;;21.60;34.70;;;;;;483214;246;1205;-39
2022/02/17 09:52:49;;;;;;;;;;;21.70;34.60;;;;;;483411;246;2318;-39
2022/02/17 09:54:51;;;;;;;;;;;21.60;34.70;;;;;;483484;246;879;-39
2022/02/17 09:56:52;;;;;;;;;;;21.60;34.80;;;;;;483517;246;1101;-39
2022/02/17 09:58:53;;;;;;;;;;;21.60;34.80;;;;;;483484;246;2129;-39
2022/02/17 10:00:56;;;;;;;;;;;21.60;34.80;;;;;;483341;246;1189;-39
2022/02/17 10:02:56;;;;;;;;;;;21.60;34.80;;;;;;483788;246;1686;-39
2022/02/17 10:04:57;;;;;;;;;;;21.60;34.80;;;;;;483877;246;1541;-39
2022/02/17 10:06:59;;;;;;;;;;;21.60;34.70;;;;;;483443;246;1270;-40
2022/02/17 10:09:00;;;;;;;;;;;21.60;34.70;;;;;;483886;246;1205;-39
2022/02/17 10:11:01;;;;;;;;;;;21.60;34.70;;;;;;483693;246;1386;-40
2022/02/17 10:13:04;;;;;;;;;;;21.60;34.80;;;;;;483078;246;1188;-39
2022/02/17 10:15:04;;;;;;;;;;;21.70;34.80;;;;;;483184;245;1354;-39
2022/02/17 10:17:06;;;;;;;;;;;21.60;34.70;;;;;;483206;246;1122;-39
2022/02/17 10:19:07;;;;;;;;;;;21.60;34.80;;;;;;483373;246;2188;-39
2022/02/17 10:21:09;;;;;;;;;;;21.60;34.70;;;;;;483258;246;1346;-39
2022/02/17 10:23:09;;;;;;;;;;;21.60;34.80;;;;;;483136;246;2247;-39
2022/02/17 10:25:11;;;;;;;;;;;21.60;34.80;;;;;;483095;246;1098;-39
2022/02/17 10:27:12;;;;;;;;;;;21.60;34.80;;;;;;483315;246;1346;-39
2022/02/17 10:29:13;;;;;;;;;;;21.60;34.80;;;;;;483366;246;1104;-39
2022/02/17 10:31:15;;;;;;;;;;;21.60;34.80;;;;;;483322;246;1161;-40
2022/02/17 10:33:16;;;;;;;;;;;21.60;34.80;;;;;;483426;246;1100;-39
2022/02/17 10:35:18;;;;;;;;;;;21.60;34.80;;;;;;483166;246;1278;-39
2022/02/17 10:37:19;;;;;;;;;;;21.60;34.90;;;;;;483169;246;1807;-39
2022/02/17 10:39:22;;;;;;;;;;;21.60;34.80;;;;;;483266;246;2116;-39
2022/02/17 10:41:22;;;;;;;;;;;21.60;34.80;;;;;;483097;245;2375;-39
2022/02/17 10:43:23;;;;;;;;;;;21.60;34.80;;;;;;483087;246;1125;-40
2022/02/17 10:45:24;;;;;;;;;;;21.70;34.90;;;;;;483088;246;1109;-39
2022/02/17 10:47:28;;;;;;;;;;;21.70;34.80;;;;;;482904;246;1203;-39
2022/02/17 10:49:28;;;;;;;;;;;21.70;34.80;;;;;;482805;246;2392;-39
2022/02/17 10:51:28;;;;;;;;;;;21.70;34.80;;;;;;483104;245;1597;-39
2022/02/17 10:53:31;;;;;;;;;;;21.70;34.90;;;;;;483184;246;1310;-39
2022/02/17 10:55:31;;;;;;;;;;;21.70;34.80;;;;;;483129;246;1328;-39
2022/02/17 10:57:33;;;;;;;;;;;21.60;34.80;;;;;;483050;246;1348;-40
2022/02/17 11:01:53;;;;;;;;;;;21.60;34.80;;;;;;483009;246;1159;-39
2022/02/17 11:03:55;;;;;;;;;;;21.60;34.80;;;;;;483176;246;1074;-39
2022/02/17 11:05:56;;;;;;;;;;;21.60;34.80;;;;;;483189;242;1351;-39
2022/02/17 11:07:57;;;;;;;;;;;21.70;34.80;;;;;;483118;246;1371;-39
2022/02/17 11:09:59;;;;;;;;;;;21.70;34.80;;;;;;483138;246;1157;-39
2022/02/17 11:12:00;;;;;;;;;;;21.70;34.80;;;;;;483178;246;1251;-39
2022/02/17 11:14:01;;;;;;;;;;;21.70;34.80;;;;;;483050;246;1241;-40
2022/02/17 11:16:03;;;;;;;;;;;21.70;34.80;;;;;;483124;246;1212;-39
2022/02/17 11:18:04;;;;;;;;;;;21.60;34.80;;;;;;483235;246;1127;-40
2022/02/17 11:20:06;;;;;;;;;;;21.60;34.90;;;;;;483310;246;2223;-39
2022/02/17 11:22:07;;;;;;;;;;;21.60;34.90;;;;;;483135;246;1195;-39
2022/02/17 11:24:08;;;;;;;;;;;21.70;34.90;;;;;;483313;246;1170;-39
2022/02/17 11:26:09;;;;;;;;;;;21.60;34.80;;;;;;483300;246;2404;-39
2022/02/17 11:28:11;;;;;;;;;;;21.60;34.80;;;;;;483347;246;1305;-39
2022/02/17 11:30:12;;;;;;;;;;;21.70;34.90;;;;;;483286;246;1173;-39
2022/02/17 11:32:14;;;;;;;;;;;21.70;34.80;;;;;;483181;246;1340;-39
2022/02/17 11:34:15;;;;;;;;;;;21.60;34.80;;;;;;483338;246;2093;-39
2022/02/17 11:36:17;;;;;;;;;;;21.60;34.80;;;;;;483374;246;1119;-39
2022/02/17 11:38:18;;;;;;;;;;;21.70;34.80;;;;;;483082;246;1817;-39
2022/02/17 11:40:20;;;;;;;;;;;21.70;34.80;;;;;;483437;246;2120;-39
2022/02/17 11:42:20;;;;;;;;;;;21.70;34.70;;;;;;483057;246;2116;-39
2022/02/17 11:44:23;;;;;;;;;;;21.60;34.80;;;;;;483213;246;1512;-39
2022/02/17 11:46:24;;;;;;;;;;;21.70;34.80;;;;;;483384;245;2040;-39
2022/02/17 11:48:25;;;;;;;;;;;21.60;34.80;;;;;;483124;246;2259;-39
2022/02/17 11:50:26;;;;;;;;;;;21.70;34.80;;;;;;483434;246;1121;-39
2022/02/17 11:52:31;;;;;;;;;;;21.70;34.80;;;;;;483213;246;1236;-39
2022/02/17 11:54:29;;;;;;;;;;;21.60;34.80;;;;;;483267;245;2083;-39
2022/02/17 11:56:30;;;;;;;;;;;21.60;34.80;;;;;;483319;246;1083;-39
2022/02/17 11:58:32;;;;;;;;;;;21.70;34.80;;;;;;483154;246;1106;-39
2022/02/17 12:00:36;;;;;;;;;;;21.70;34.70;;;;;;483312;246;2180;-39
2022/02/17 12:02:37;;;;;;;;;;;21.70;34.70;;;;;;483200;246;1518;-39